Weather at Ottawa Macdonald-Cartier International Airport

Public forecast

Using degrees Celsius for public forecast. Weather courtesy of forecast.io.

Current aviation weather report (METAR) for Ottawa Macdonald-Cartier International Airport

Retrieved 2021/06/20 01:00 UTC (19 minutes ago):

CYOW 200100Z 34006KT 15SM FEW100 FEW220 22/11 A2966 RMK AC1CI1 AC TR CI TR SLP044 DENSITY ALT 1600FT

Aviation forecast (TAF) for Ottawa Macdonald-Cartier International Airport

Retrieved 2021-06-20 00:42 UTC (37 minutes ago):

TAF CYOW 192338Z 2000/2024 30008KT P6SM FEW070 FM200400 VRB03KT P6SM SKC FM201400 23007KT P6SM FEW060 FM201800 20012KT P6SM SCT060 RMK NXT FCST BY 200300Z